Time;durP1;ratioP1;P1;durP2;ratioP2;P2;SDS_P1;SDS_P2;PMS_P1;PMS_P2;Temp;Humidity;BMP_temperature;BMP_pressure;BME280_temperature;BME280_humidity;BME280_pressure;Samples;Min_cycle;Max_cycle;Signal;HPM_P1;HPM_P2
2023/11/18 00:01:16;;;;;;;0.10;0.10;;;;;;;8.41;73.79;100730.59;5014511;28;20029;-90
2023/11/18 00:03:42;;;;;;;0.10;0.10;;;;;;;8.51;73.28;100725.00;5014158;28;20514;-89
2023/11/18 00:06:07;;;;;;;0.20;0.20;;;;;;;8.41;72.79;100734.00;5030715;28;20037;-90
2023/11/18 00:08:33;;;;;;;0.10;0.10;;;;;;;8.28;71.87;100713.00;5013947;28;20093;-90
2023/11/18 00:10:59;;;;;;;0.20;0.20;;;;;;;8.41;71.37;100733.16;5014285;28;20033;-91
2023/11/18 00:13:26;;;;;;;0.10;0.10;;;;;;;8.31;71.63;100728.31;5014145;28;20029;-91
2023/11/18 00:15:52;;;;;;;0.10;0.10;;;;;;;8.19;72.88;100715.91;5014595;28;20021;-90
2023/11/18 00:18:18;;;;;;;0.10;0.10;;;;;;;8.04;72.51;100698.44;5030467;28;20392;-89
2023/11/18 00:20:44;;;;;;;0.20;0.20;;;;;;;8.11;71.55;100715.34;5030491;28;20034;-91
2023/11/18 00:23:10;;;;;;;0.20;0.20;;;;;;;8.20;71.68;100725.31;5013631;28;20400;-89
2023/11/18 00:25:36;;;;;;;0.20;0.20;;;;;;;8.10;72.14;100713.69;5013719;28;20168;-90
2023/11/18 00:28:01;;;;;;;0.10;0.10;;;;;;;8.02;73.40;100708.78;5029979;28;20538;-90
2023/11/18 00:30:28;;;;;;;0.20;0.20;;;;;;;7.92;73.22;100699.72;4997608;28;20025;-90
2023/11/18 00:32:53;;;;;;;0.10;0.10;;;;;;;7.92;74.23;100710.03;5030252;28;20041;-90
2023/11/18 00:35:19;;;;;;;0.10;0.10;;;;;;;7.83;74.54;100709.53;4997559;28;20092;-90
2023/11/18 00:37:44;;;;;;;0.20;0.20;;;;;;;7.67;75.52;100702.38;4997290;28;20045;-89
2023/11/18 00:40:11;;;;;;;0.10;0.10;;;;;;;7.60;74.27;100705.22;5013802;28;20518;-89
2023/11/18 00:42:37;;;;;;;0.20;0.20;;;;;;;7.51;73.15;100705.53;5014086;28;20033;-91
2023/11/18 00:45:04;;;;;;;0.15;0.15;;;;;;;7.40;72.25;100705.91;5013510;28;20132;-91
2023/11/18 00:47:29;;;;;;;0.10;0.10;;;;;;;7.26;72.61;100697.78;5014180;28;20167;-89
2023/11/18 00:49:55;;;;;;;0.10;0.10;;;;;;;7.27;71.63;100699.47;5013815;28;20056;-89
2023/11/18 00:52:21;;;;;;;0.10;0.10;;;;;;;7.24;72.18;100705.56;5013437;28;20041;-89
2023/11/18 00:54:46;;;;;;;0.10;0.10;;;;;;;7.27;72.00;100705.47;5029958;28;20407;-91
2023/11/18 00:57:12;;;;;;;0.10;0.10;;;;;;;7.35;70.66;100702.63;5013508;28;20029;-89
2023/11/18 00:59:41;;;;;;;0.20;0.20;;;;;;;7.16;71.52;100695.53;5013566;28;20462;-90
2023/11/18 01:02:08;;;;;;;0.10;0.10;;;;;;;7.25;70.96;100699.53;5013874;28;20026;-92
2023/11/18 01:04:34;;;;;;;0.20;0.20;;;;;;;7.30;70.78;100705.38;5013654;28;20056;-90
2023/11/18 01:06:59;;;;;;;0.10;0.10;;;;;;;7.30;71.18;100705.38;4997014;28;20025;-90
2023/11/18 01:09:25;;;;;;;0.10;0.10;;;;;;;7.37;70.99;100714.53;5013464;28;20522;-89
2023/11/18 01:11:50;;;;;;;0.10;0.10;;;;;;;7.29;71.37;100700.28;4997048;28;20037;-90
2023/11/18 01:14:17;;;;;;;0.10;0.10;;;;;;;7.19;70.58;100684.31;4996927;28;20407;-91
2023/11/18 01:16:43;;;;;;;0.10;0.10;;;;;;;7.37;68.98;100721.44;5030769;28;20024;-89
2023/11/18 01:19:09;;;;;;;0.10;0.10;;;;;;;7.39;67.91;100719.66;5029789;28;20427;-90
2023/11/18 01:21:36;;;;;;;0.10;0.10;;;;;;;7.31;67.33;100711.38;5013128;28;20030;-90
2023/11/18 01:24:02;;;;;;;0.10;0.10;;;;;;;7.17;67.66;100706.66;5013487;28;20388;-91
2023/11/18 01:26:27;;;;;;;0.10;0.10;;;;;;;7.19;67.57;100698.03;4997144;28;20108;-91
2023/11/18 01:28:55;;;;;;;0.10;0.10;;;;;;;7.10;67.57;100703.47;5030879;28;20108;-89
2023/11/18 01:31:21;;;;;;;0.10;0.10;;;;;;;7.10;67.93;100713.78;4997864;28;20079;-89
2023/11/18 01:33:50;;;;;;;0.10;0.10;;;;;;;6.98;68.63;100705.59;5013422;28;20022;-89
2023/11/18 01:36:15;;;;;;;0.10;0.10;;;;;;;7.01;67.94;100701.22;5029693;28;20030;-91
2023/11/18 01:38:41;;;;;;;0.10;0.10;;;;;;;7.02;67.80;100723.47;5032516;28;20025;-91
2023/11/18 01:41:06;;;;;;;0.20;0.20;;;;;;;6.84;68.18;100703.47;5033445;28;20034;-89
2023/11/18 01:43:32;;;;;;;0.10;0.10;;;;;;;6.96;68.10;100710.78;5016986;28;20037;-90
2023/11/18 01:46:10;;;;;;;0.20;0.20;;;;;;;6.92;68.18;100718.66;5016478;28;20079;-91
2023/11/18 01:48:36;;;;;;;0.10;0.10;;;;;;;6.91;67.75;100712.69;5017154;28;20029;-90
2023/11/18 01:51:01;;;;;;;0.20;0.20;;;;;;;6.76;68.75;100695.16;5017009;28;20033;-91
2023/11/18 01:53:27;;;;;;;0.10;0.10;;;;;;;6.58;67.51;100671.72;5016822;28;20029;-90
2023/11/18 01:55:53;;;;;;;0.10;0.10;;;;;;;6.50;68.43;100668.56;5016842;28;20061;-89
2023/11/18 01:58:19;;;;;;;0.10;0.10;;;;;;;6.58;68.14;100687.13;5033126;28;20030;-91
2023/11/18 02:00:46;;;;;;;0.10;0.10;;;;;;;6.57;68.89;100677.75;5000168;28;20478;-90
2023/11/18 02:03:12;;;;;;;0.20;0.20;;;;;;;6.52;68.23;100677.06;5016558;28;20061;-88
2023/11/18 02:05:39;;;;;;;0.10;0.10;;;;;;;6.45;67.82;100692.72;4999951;28;20068;-91
2023/11/18 02:08:06;;;;;;;0.10;0.10;;;;;;;6.27;67.99;100665.84;5016750;28;20029;-91
2023/11/18 02:10:33;;;;;;;0.10;0.10;;;;;;;6.46;68.55;100684.13;5032841;28;20456;-90
2023/11/18 02:13:10;;;;;;;0.10;0.10;;;;;;;6.37;68.24;100690.38;5016514;28;20539;-92
2023/11/18 02:15:36;;;;;;;0.10;0.10;;;;;;;6.32;68.72;100697.41;5016843;28;20036;-89
2023/11/18 02:18:05;;;;;;;0.10;0.10;;;;;;;6.29;68.65;100693.19;5016203;28;20029;-90
2023/11/18 02:20:30;;;;;;;0.10;0.10;;;;;;;6.24;69.43;100699.34;5016019;28;20044;-89
2023/11/18 02:22:56;;;;;;;0.10;0.10;;;;;;;6.29;67.53;100705.19;5031907;28;20029;-89
2023/11/18 02:25:21;;;;;;;0.10;0.10;;;;;;;6.22;67.91;100701.13;5016659;28;20033;-90
2023/11/18 02:27:47;;;;;;;0.10;0.10;;;;;;;6.05;67.96;100675.94;5015947;28;20037;-91
2023/11/18 02:30:16;;;;;;;0.10;0.10;;;;;;;6.18;68.59;100704.66;5016011;28;20842;-90
2023/11/18 02:32:59;;;;;;;0.10;0.10;;;;;;;6.20;67.36;100702.91;5032460;28;20025;-90
2023/11/18 02:35:31;;;;;;;0.20;0.20;;;;;;;6.19;66.87;100716.63;5000446;28;20021;-91
2023/11/18 02:37:58;;;;;;;0.20;0.20;;;;;;;6.19;67.63;100721.75;5032435;28;20128;-90
2023/11/18 02:40:30;;;;;;;0.10;0.10;;;;;;;6.13;67.97;100729.66;4999869;28;20025;-90
2023/11/18 02:42:55;;;;;;;0.20;0.20;;;;;;;6.08;66.88;100713.53;4999344;28;20037;-91
2023/11/18 02:45:21;;;;;;;0.10;0.10;;;;;;;6.19;66.32;100730.28;5015604;28;20095;-89
2023/11/18 02:47:47;;;;;;;0.10;0.10;;;;;;;6.12;66.95;100730.53;5031971;28;20076;-90
2023/11/18 02:50:13;;;;;;;0.10;0.10;;;;;;;6.12;67.17;100730.53;5015197;28;20026;-91
2023/11/18 02:52:41;;;;;;;0.10;0.10;;;;;;;6.13;67.43;100737.38;5015410;28;20037;-90
2023/11/18 02:55:10;;;;;;;0.15;0.15;;;;;;;6.18;65.47;100745.75;5015961;28;20032;-89
2023/11/18 02:57:36;;;;;;;0.10;0.10;;;;;;;6.17;67.09;100741.50;5032042;28;20087;-90
2023/11/18 03:00:04;;;;;;;0.20;0.20;;;;;;;5.79;67.00;100697.19;5015598;28;20112;-89
2023/11/18 03:02:30;;;;;;;0.10;0.10;;;;;;;5.95;66.06;100719.00;5031419;28;20487;-89
2023/11/18 03:04:59;;;;;;;0.10;0.10;;;;;;;6.04;66.16;100739.31;5031749;28;20124;-90
2023/11/18 03:07:26;;;;;;;0.10;0.10;;;;;;;6.06;65.72;100738.41;5014953;28;20037;-89
2023/11/18 03:09:52;;;;;;;0.10;0.10;;;;;;;6.00;66.70;100745.41;5015641;28;20088;-89
2023/11/18 03:12:19;;;;;;;0.10;0.10;;;;;;;6.13;65.96;100750.19;5016177;28;20033;-92
2023/11/18 03:14:45;;;;;;;0.20;0.20;;;;;;;6.15;65.08;100758.69;5015214;28;20057;-88
2023/11/18 03:17:10;;;;;;;0.10;0.10;;;;;;;5.99;65.44;100760.84;4998609;28;20088;-89
2023/11/18 03:19:36;;;;;;;0.10;0.10;;;;;;;5.85;66.24;100729.56;5015234;28;20025;-90
2023/11/18 03:22:02;;;;;;;0.10;0.10;;;;;;;5.99;67.01;100745.44;5031732;28;20507;-89
2023/11/18 03:24:28;;;;;;;0.10;0.10;;;;;;;6.01;66.39;100749.66;5015193;28;20026;-90
2023/11/18 03:26:57;;;;;;;0.10;0.10;;;;;;;5.91;66.61;100743.09;5031086;28;20033;-89
2023/11/18 03:29:22;;;;;;;0.10;0.10;;;;;;;5.93;65.58;100753.34;5031665;28;20033;-88
2023/11/18 03:31:49;;;;;;;0.10;0.10;;;;;;;6.07;66.04;100747.78;5014679;28;20099;-90
2023/11/18 03:34:19;;;;;;;0.10;0.10;;;;;;;6.08;65.36;100765.72;5031523;28;20029;-91
2023/11/18 03:36:46;;;;;;;0.10;0.10;;;;;;;6.08;65.17;100759.75;4998911;28;20029;-89
2023/11/18 03:39:12;;;;;;;0.20;0.20;;;;;;;6.15;64.50;100762.09;5015075;28;20030;-90
2023/11/18 03:41:37;;;;;;;0.10;0.10;;;;;;;6.08;65.03;100760.59;4998447;28;20029;-92
2023/11/18 03:44:04;;;;;;;0.20;0.20;;;;;;;6.01;65.15;100765.09;5031161;28;20034;-90
2023/11/18 03:46:32;;;;;;;0.10;0.10;;;;;;;6.03;63.97;100747.06;5032094;28;20117;-89
2023/11/18 03:48:58;;;;;;;0.10;0.10;;;;;;;6.12;64.34;100761.38;5014946;28;20025;-91
2023/11/18 03:51:24;;;;;;;0.10;0.10;;;;;;;6.16;65.43;100757.81;5014469;28;20037;-91
2023/11/18 03:53:50;;;;;;;0.10;0.10;;;;;;;6.08;66.36;100739.22;5014671;28;20112;-91
2023/11/18 03:56:19;;;;;;;0.10;0.10;;;;;;;6.04;65.05;100759.84;5030851;28;20889;-90
2023/11/18 03:58:47;;;;;;;0.20;0.20;;;;;;;6.11;64.78;100759.69;5014527;28;20049;-90
2023/11/18 04:01:20;;;;;;;0.20;0.20;;;;;;;6.11;64.50;100767.41;5014450;28;20038;-90
2023/11/18 04:03:45;;;;;;;0.20;0.20;;;;;;;6.10;64.62;100769.13;4998256;28;20029;-88
2023/11/18 04:06:11;;;;;;;0.20;0.20;;;;;;;6.11;64.34;100734.00;5014490;28;20079;-89
2023/11/18 04:08:37;;;;;;;0.20;0.20;;;;;;;6.13;64.82;100748.47;5030649;28;20057;-92
2023/11/18 04:11:04;;;;;;;0.20;0.20;;;;;;;6.11;64.25;100751.97;5014425;28;20029;-90
2023/11/18 04:13:30;;;;;;;0.20;0.20;;;;;;;6.18;64.53;100756.03;5014478;28;20028;-91
2023/11/18 04:15:55;;;;;;;0.10;0.10;;;;;;;6.12;64.37;100736.53;5013892;28;20030;-90
2023/11/18 04:18:21;;;;;;;0.10;0.10;;;;;;;6.21;64.44;100751.66;4998017;28;20029;-89
2023/11/18 04:20:46;;;;;;;0.10;0.10;;;;;;;5.88;64.81;100725.16;5031508;28;20060;-90
2023/11/18 04:23:13;;;;;;;0.20;0.20;;;;;;;6.06;65.23;100735.84;5029813;28;20026;-92
2023/11/18 04:25:38;;;;;;;0.20;0.20;;;;;;;6.13;64.53;100743.34;5014147;28;20053;-90
2023/11/18 04:28:04;;;;;;;0.10;0.10;;;;;;;6.10;64.22;100740.03;5031447;28;20163;-90
2023/11/18 04:30:29;;;;;;;0.10;0.10;;;;;;;5.98;64.66;100724.06;5013419;28;20388;-89
2023/11/18 04:32:55;;;;;;;0.10;0.10;;;;;;;6.11;63.93;100751.97;5014055;28;20033;-91
2023/11/18 04:35:22;;;;;;;0.10;0.10;;;;;;;6.06;64.42;100741.81;5013722;28;20037;-90
2023/11/18 04:37:48;;;;;;;0.10;0.10;;;;;;;6.02;64.55;100735.94;4997862;28;20093;-89
2023/11/18 04:40:13;;;;;;;0.10;0.10;;;;;;;6.17;64.52;100749.22;5014093;28;20068;-90
2023/11/18 04:42:39;;;;;;;0.10;0.10;;;;;;;5.95;64.06;100713.03;5013886;28;20457;-88
2023/11/18 04:45:05;;;;;;;0.10;0.10;;;;;;;6.06;64.79;100733.28;5029781;28;20045;-91
2023/11/18 04:47:31;;;;;;;0.20;0.20;;;;;;;6.14;63.80;100733.91;5014019;28;20032;-91
2023/11/18 04:49:56;;;;;;;0.10;0.10;;;;;;;5.95;64.89;100726.72;5014059;28;20034;-90
2023/11/18 04:52:22;;;;;;;0.20;0.20;;;;;;;6.12;64.09;100736.53;5013926;28;20068;-90
2023/11/18 04:54:47;;;;;;;0.10;0.10;;;;;;;6.04;64.86;100728.19;5013879;28;20026;-91
2023/11/18 04:57:14;;;;;;;0.10;0.10;;;;;;;5.92;64.69;100713.97;5030155;28;20025;-90
2023/11/18 04:59:39;;;;;;;0.20;0.20;;;;;;;6.12;64.29;100736.53;5029877;28;20049;-90
2023/11/18 05:02:06;;;;;;;0.10;0.10;;;;;;;6.09;64.81;100730.63;5013870;28;20093;-90
2023/11/18 05:04:31;;;;;;;0.10;0.10;;;;;;;6.17;63.52;100720.97;5013841;28;20044;-91
2023/11/18 05:06:57;;;;;;;0.10;0.10;;;;;;;6.10;63.42;100714.34;5030410;28;20038;-90
2023/11/18 05:09:22;;;;;;;0.10;0.10;;;;;;;6.09;63.95;100725.47;5031136;28;20033;-90
2023/11/18 05:11:48;;;;;;;0.10;0.10;;;;;;;6.09;64.09;100735.75;5013796;28;20060;-90
2023/11/18 05:14:14;;;;;;;0.10;0.10;;;;;;;5.98;64.52;100713.78;5033665;28;20029;-89
2023/11/18 05:16:39;;;;;;;0.20;0.20;;;;;;;6.12;63.90;100727.97;5033944;28;20112;-89
2023/11/18 05:19:05;;;;;;;0.10;0.10;;;;;;;6.09;63.92;100746.88;5034104;28;20483;-91
2023/11/18 05:21:30;;;;;;;0.10;0.10;;;;;;;6.16;64.14;100737.25;5017540;28;20065;-89
2023/11/18 05:23:57;;;;;;;0.10;0.10;;;;;;;6.10;64.10;100740.03;5017414;28;20412;-91
2023/11/18 05:26:22;;;;;;;0.10;0.10;;;;;;;6.11;64.54;100739.97;5017492;28;20084;-91
2023/11/18 05:28:49;;;;;;;0.10;0.10;;;;;;;5.94;63.83;100742.19;5016794;28;20025;-89
2023/11/18 05:31:15;;;;;;;0.10;0.10;;;;;;;6.04;64.05;100748.75;5017646;28;20061;-92
2023/11/18 05:33:42;;;;;;;0.20;0.20;;;;;;;6.02;64.63;100745.38;5017604;28;20116;-90
2023/11/18 05:36:08;;;;;;;0.10;0.10;;;;;;;6.10;63.73;100750.31;5033673;28;20083;-90
2023/11/18 05:38:35;;;;;;;0.10;0.10;;;;;;;6.12;64.11;100751.09;5017143;28;20026;-91
2023/11/18 05:41:03;;;;;;;0.10;0.10;;;;;;;6.20;63.97;100750.00;5017195;28;20032;-89
2023/11/18 05:43:40;;;;;;;0.10;0.10;;;;;;;6.21;64.17;100750.84;5000844;28;20041;-91
2023/11/18 05:46:20;;;;;;;0.10;0.10;;;;;;;6.13;65.04;100729.66;5002534;28;20068;-91
2023/11/18 05:48:48;;;;;;;0.10;0.10;;;;;;;5.97;64.17;100717.25;5033550;28;20033;-90
2023/11/18 05:51:13;;;;;;;0.10;0.10;;;;;;;6.11;64.36;100737.41;5016966;28;20442;-90
2023/11/18 05:53:45;;;;;;;0.20;0.20;;;;;;;6.07;65.18;100732.38;5033303;28;20021;-90
2023/11/18 05:56:10;;;;;;;0.10;0.10;;;;;;;6.06;64.34;100740.97;5016926;28;20033;-91
2023/11/18 05:58:37;;;;;;;0.10;0.10;;;;;;;6.11;64.65;100732.28;5016858;28;20040;-90
2023/11/18 06:01:02;;;;;;;0.20;0.20;;;;;;;6.16;64.06;100732.97;5000329;28;20116;-90
2023/11/18 06:03:28;;;;;;;0.10;0.10;;;;;;;6.13;64.09;100742.50;5033224;28;20095;-90
2023/11/18 06:05:54;;;;;;;0.20;0.20;;;;;;;6.15;63.25;100745.84;5016650;28;20032;-90
2023/11/18 06:08:22;;;;;;;0.10;0.10;;;;;;;6.23;63.78;100741.34;5032993;28;20033;-92
2023/11/18 06:10:48;;;;;;;0.10;0.10;;;;;;;6.18;63.44;100731.19;5032899;28;20029;-90
2023/11/18 06:13:16;;;;;;;0.10;0.10;;;;;;;6.23;63.36;100749.06;5016578;28;20041;-90
2023/11/18 06:15:43;;;;;;;0.20;0.20;;;;;;;6.25;63.03;100749.84;5000613;28;20040;-89
2023/11/18 06:18:08;;;;;;;0.10;0.10;;;;;;;6.06;63.14;100741.81;5016681;28;20036;-90
2023/11/18 06:20:38;;;;;;;0.20;0.20;;;;;;;6.10;62.13;100733.16;5032813;28;20025;-90
2023/11/18 06:23:03;;;;;;;0.20;0.20;;;;;;;6.26;62.57;100739.50;5032423;28;20032;-91
2023/11/18 06:25:31;;;;;;;0.10;0.10;;;;;;;6.26;62.42;100759.22;5031215;28;20108;-89
2023/11/18 06:27:58;;;;;;;0.20;0.20;;;;;;;6.27;62.20;100748.06;5033539;28;20021;-90
2023/11/18 06:30:23;;;;;;;0.20;0.20;;;;;;;6.16;63.83;100756.09;4999637;28;20033;-91
2023/11/18 06:32:49;;;;;;;0.20;0.20;;;;;;;6.17;62.82;100755.19;5016080;28;20033;-90
2023/11/18 06:35:14;;;;;;;0.10;0.10;;;;;;;6.23;62.86;100760.16;5015998;28;20034;-89
2023/11/18 06:37:40;;;;;;;0.10;0.10;;;;;;;6.16;62.62;100758.66;5032483;28;20057;-92
2023/11/18 06:40:16;;;;;;;0.10;0.10;;;;;;;6.13;62.37;100752.78;5015637;28;20029;-89
2023/11/18 06:42:47;;;;;;;0.10;0.10;;;;;;;6.25;62.82;100765.25;5032609;28;20057;-89
2023/11/18 06:45:13;;;;;;;0.10;0.10;;;;;;;6.20;63.41;100759.44;5016335;28;20053;-89
2023/11/18 06:47:43;;;;;;;0.10;0.10;;;;;;;6.11;62.39;100755.38;5016102;28;20514;-91
2023/11/18 06:50:09;;;;;;;0.10;0.10;;;;;;;6.16;62.60;100763.78;5016228;28;20411;-90
2023/11/18 06:52:38;;;;;;;0.10;0.10;;;;;;;6.27;61.92;100779.72;5032209;28;20026;-89
2023/11/18 06:55:04;;;;;;;0.20;0.20;;;;;;;6.28;62.38;100778.00;5015340;28;20103;-90
2023/11/18 06:57:29;;;;;;;0.10;0.10;;;;;;;6.27;62.19;100776.31;5015805;28;20056;-92
2023/11/18 06:59:55;;;;;;;0.20;0.20;;;;;;;6.28;62.15;100803.69;5015496;28;20022;-88
2023/11/18 07:02:21;;;;;;;0.10;0.10;;;;;;;6.24;62.73;100786.69;5015332;28;20031;-90
2023/11/18 07:04:46;;;;;;;0.10;0.10;;;;;;;6.29;62.39;100784.81;5032009;28;20025;-91
2023/11/18 07:07:12;;;;;;;0.10;0.10;;;;;;;6.26;61.83;100793.47;5015442;28;20116;-92
2023/11/18 07:09:39;;;;;;;0.10;0.10;;;;;;;6.28;61.66;100798.56;5014858;28;20033;-90
2023/11/18 07:12:05;;;;;;;0.10;0.10;;;;;;;6.18;61.54;100777.44;5015452;28;20033;-90
2023/11/18 07:14:30;;;;;;;0.20;0.20;;;;;;;6.31;61.68;100781.34;5031751;28;20522;-91
2023/11/18 07:16:56;;;;;;;0.20;0.20;;;;;;;6.32;61.21;100808.72;5031765;28;20057;-91
2023/11/18 07:19:21;;;;;;;0.20;0.20;;;;;;;6.38;61.78;100805.13;5015201;28;20041;-90
2023/11/18 07:21:47;;;;;;;0.10;0.10;;;;;;;6.40;61.93;100807.69;5031657;28;20029;-90
2023/11/18 07:24:13;;;;;;;0.20;0.20;;;;;;;6.44;61.58;100820.38;5014895;28;20039;-91
2023/11/18 07:26:38;;;;;;;0.10;0.10;;;;;;;6.36;60.91;100822.31;5014936;28;20036;-91
2023/11/18 07:29:07;;;;;;;0.10;0.10;;;;;;;6.38;61.73;100817.97;5031468;28;20032;-89
2023/11/18 07:31:35;;;;;;;0.20;0.20;;;;;;;6.32;61.13;100820.72;4999521;28;20029;-89
2023/11/18 07:34:04;;;;;;;0.10;0.10;;;;;;;6.36;61.14;100821.47;5015502;28;20132;-90
2023/11/18 07:36:29;;;;;;;0.10;0.10;;;;;;;6.37;60.43;100808.59;5030912;28;20518;-89
2023/11/18 07:38:55;;;;;;;0.10;0.10;;;;;;;6.46;61.62;100802.34;5014115;28;20029;-90
2023/11/18 07:41:27;;;;;;;0.20;0.20;;;;;;;6.38;61.28;100809.41;5031261;28;20083;-91
2023/11/18 07:43:55;;;;;;;0.20;0.20;;;;;;;6.27;60.20;100832.84;5015699;28;20254;-90
2023/11/18 07:46:28;;;;;;;0.10;0.10;;;;;;;6.29;60.26;100800.25;5016273;28;20053;-90
2023/11/18 07:48:53;;;;;;;;;;;;;;;6.49;60.87;100827.94;5031489;28;20491;-89
2023/11/18 07:51:22;;;;;;;0.10;0.10;;;;;;;6.39;61.52;100811.97;5032285;28;19919;-90
2023/11/18 07:53:49;;;;;;;0.10;0.10;;;;;;;6.43;61.03;100808.41;5030721;28;20029;-90
2023/11/18 07:56:16;;;;;;;0.10;0.10;;;;;;;6.50;60.77;100824.50;5014260;28;20025;-90
2023/11/18 07:58:45;;;;;;;0.20;0.20;;;;;;;6.50;60.38;100824.50;5014977;28;20026;-91
2023/11/18 08:01:11;;;;;;;0.10;0.10;;;;;;;6.53;60.83;100803.84;5014632;28;20033;-90
2023/11/18 08:03:38;;;;;;;0.10;0.10;;;;;;;6.60;59.96;100816.47;4998015;28;20038;-90
2023/11/18 08:06:06;;;;;;;0.10;0.10;;;;;;;6.51;60.57;100795.34;5014590;28;20068;-90
2023/11/18 08:08:32;;;;;;;0.20;0.20;;;;;;;6.61;59.73;100813.03;5030485;28;20022;-90
2023/11/18 08:10:58;;;;;;;0.20;0.20;;;;;;;6.73;59.91;100826.41;5031812;28;20152;-91
2023/11/18 08:13:23;;;;;;;0.20;0.20;;;;;;;6.71;59.59;100841.03;5014324;28;20430;-90
2023/11/18 08:15:49;;;;;;;0.10;0.10;;;;;;;6.62;60.38;100839.56;5014206;28;20025;-89
2023/11/18 08:18:15;;;;;;;0.10;0.10;;;;;;;6.66;60.21;100835.16;5014299;28;20064;-90
2023/11/18 08:20:41;;;;;;;0.20;0.20;;;;;;;6.59;59.04;100830.22;5030742;28;20478;-91
2023/11/18 08:23:06;;;;;;;0.20;0.20;;;;;;;6.57;59.63;100831.13;5029850;28;20033;-90
2023/11/18 08:25:35;;;;;;;0.20;0.20;;;;;;;6.45;59.59;100818.66;5013972;28;20064;-91
2023/11/18 08:28:01;;;;;;;0.20;0.20;;;;;;;6.76;59.62;100836.59;5030543;28;20029;-90
2023/11/18 08:30:27;;;;;;;0.20;0.20;;;;;;;6.81;59.43;100842.44;5013892;28;20021;-90
2023/11/18 08:32:53;;;;;;;0.10;0.10;;;;;;;6.94;58.82;100866.06;5013808;28;20103;-89
2023/11/18 08:35:20;;;;;;;0.20;0.20;;;;;;;6.88;59.05;100861.91;5013729;28;20535;-87
2023/11/18 08:37:47;;;;;;;0.20;0.20;;;;;;;6.94;59.99;100872.03;5030228;28;20080;-91
2023/11/18 08:40:16;;;;;;;0.10;0.10;;;;;;;7.08;59.40;100869.91;5013940;28;20043;-89
2023/11/18 08:42:49;;;;;;;0.10;0.10;;;;;;;6.94;59.26;100872.03;4998310;28;20025;-90
2023/11/18 08:45:29;;;;;;;0.20;0.20;;;;;;;6.95;60.25;100889.16;5004384;28;20053;-91
2023/11/18 08:47:55;;;;;;;0.10;0.10;;;;;;;6.98;59.75;100858.22;4963267;28;20036;-90
2023/11/18 08:50:23;;;;;;;0.20;0.20;;;;;;;6.85;60.55;100869.75;4977794;28;20064;-92
2023/11/18 08:52:52;;;;;;;0.20;0.20;;;;;;;6.85;60.47;100846.59;5010507;28;20392;-89
2023/11/18 08:55:19;;;;;;;0.20;0.20;;;;;;;6.82;59.39;100869.84;4962581;28;20103;-90
2023/11/18 08:57:57;;;;;;;0.20;0.20;;;;;;;6.73;60.14;100877.81;4978302;28;20030;-91
2023/11/18 09:00:47;;;;;;;0.10;0.10;;;;;;;6.75;60.18;100863.19;4981341;28;20112;-90
2023/11/18 09:03:34;;;;;;;0.10;0.10;;;;;;;6.77;59.83;100863.97;4967770;28;20033;-90
2023/11/18 09:06:04;;;;;;;0.20;0.20;;;;;;;6.76;60.21;100878.56;4996476;28;20036;-91
2023/11/18 09:08:37;;;;;;;0.20;0.20;;;;;;;6.83;59.43;100894.66;4978416;28;20057;-89
2023/11/18 09:11:05;;;;;;;0.13;0.13;;;;;;;6.85;59.66;100862.03;4977993;28;20410;-90
2023/11/18 09:13:31;;;;;;;0.10;0.10;;;;;;;6.85;59.87;100862.88;4978018;28;20030;-89
2023/11/18 09:16:00;;;;;;;0.10;0.10;;;;;;;6.86;60.19;100853.41;4978011;28;20048;-90
2023/11/18 09:18:27;;;;;;;0.20;0.20;;;;;;;6.87;60.02;100857.66;4977594;28;20036;-90
2023/11/18 09:20:54;;;;;;;0.20;0.20;;;;;;;6.84;60.11;100856.03;4993670;28;20026;-91
2023/11/18 09:23:23;;;;;;;0.20;0.20;;;;;;;6.87;60.31;100881.66;4978026;28;20037;-90
2023/11/18 09:25:49;;;;;;;0.10;0.10;;;;;;;6.78;60.13;100852.81;4977706;28;20236;-91
2023/11/18 09:28:15;;;;;;;0.10;0.10;;;;;;;6.72;60.29;100861.56;4977848;28;20033;-90
2023/11/18 09:30:57;;;;;;;0.15;0.15;;;;;;;6.75;60.32;100855.47;4993593;28;20048;-89
2023/11/18 09:33:28;;;;;;;0.10;0.10;;;;;;;6.68;60.23;100859.09;4980206;28;20121;-90
2023/11/18 09:36:00;;;;;;;0.20;0.20;;;;;;;6.66;60.27;100854.00;4962840;28;20026;-89
2023/11/18 09:38:30;;;;;;;0.20;0.20;;;;;;;6.65;60.49;100866.91;4978655;28;20034;-91
2023/11/18 09:41:07;;;;;;;0.20;0.20;;;;;;;6.63;60.20;100866.13;4977626;28;20034;-91
2023/11/18 09:43:36;;;;;;;0.20;0.20;;;;;;;6.69;60.26;100860.81;4979704;28;20062;-89
2023/11/18 09:46:23;;;;;;;0.20;0.20;;;;;;;6.72;60.01;100876.13;4990362;28;20088;-91
2023/11/18 09:48:59;;;;;;;0.10;0.10;;;;;;;6.73;59.99;100865.81;4995531;28;20437;-91
2023/11/18 09:51:29;;;;;;;0.15;0.15;;;;;;;6.74;60.02;100874.34;4994414;28;20049;-91
2023/11/18 09:54:02;;;;;;;0.10;0.10;;;;;;;6.77;60.45;100874.25;4994157;28;20033;-89
2023/11/18 09:56:39;;;;;;;0.10;0.10;;;;;;;6.86;60.39;100867.13;5010000;28;20113;-90
2023/11/18 09:59:30;;;;;;;0.10;0.10;;;;;;;6.94;59.63;100877.19;4995163;28;20030;-90
2023/11/18 10:01:57;;;;;;;0.10;0.10;;;;;;;6.83;60.31;100866.38;4996921;28;20038;-92
2023/11/18 10:04:27;;;;;;;0.20;0.20;;;;;;;6.71;59.42;100854.72;4996804;28;20937;-89
2023/11/18 10:06:56;;;;;;;0.20;0.20;;;;;;;6.79;59.72;100854.50;4981040;28;20048;-90
2023/11/18 10:09:36;;;;;;;0.10;0.10;;;;;;;6.81;59.99;100839.88;4996592;28;20475;-89
2023/11/18 10:12:05;;;;;;;0.20;0.20;;;;;;;6.95;59.65;100858.28;4998960;28;20069;-91
2023/11/18 10:14:34;;;;;;;0.20;0.20;;;;;;;6.91;59.42;100843.84;4996646;28;20521;-90
2023/11/18 10:17:06;;;;;;;0.20;0.20;;;;;;;6.98;59.46;100858.22;4996304;28;20026;-89
2023/11/18 10:19:55;;;;;;;0.20;0.20;;;;;;;6.89;58.83;100864.47;4996771;28;20029;-90
2023/11/18 10:22:25;;;;;;;0.15;0.15;;;;;;;6.71;59.56;100839.31;4997146;28;20317;-90
2023/11/18 10:24:54;;;;;;;0.15;0.15;;;;;;;6.75;59.81;100837.47;4996531;28;20060;-89
2023/11/18 10:27:21;;;;;;;0.10;0.10;;;;;;;6.83;59.67;100843.22;5014271;28;20153;-90
2023/11/18 10:29:48;;;;;;;0.10;0.10;;;;;;;6.90;59.62;100839.59;4980175;28;20026;-89
2023/11/18 10:32:19;;;;;;;0.20;0.20;;;;;;;6.94;59.34;100860.91;4996130;28;20038;-89
2023/11/18 10:34:45;;;;;;;0.20;0.20;;;;;;;7.02;59.34;100835.81;4993018;28;20030;-89
2023/11/18 10:37:10;;;;;;;0.20;0.20;;;;;;;6.80;58.76;100823.59;5012338;28;20029;-90
2023/11/18 10:39:36;;;;;;;0.20;0.20;;;;;;;7.00;59.35;100835.00;4996515;28;20030;-91
2023/11/18 10:42:02;;;;;;;0.20;0.20;;;;;;;7.03;59.00;100829.75;4980137;28;20053;-90
2023/11/18 10:44:29;;;;;;;0.20;0.20;;;;;;;7.03;58.74;100827.19;4976375;28;20046;-88
2023/11/18 10:46:56;;;;;;;0.20;0.20;;;;;;;7.09;59.33;100845.03;4989892;28;20034;-90
2023/11/18 10:49:22;;;;;;;0.10;0.10;;;;;;;7.07;59.08;100821.91;4989353;28;20025;-90
2023/11/18 10:51:47;;;;;;;0.20;0.20;;;;;;;7.08;59.05;100843.31;4979890;28;20033;-89
2023/11/18 10:54:19;;;;;;;0.10;0.10;;;;;;;7.17;58.62;100843.03;4979927;28;20061;-90
2023/11/18 10:56:51;;;;;;;0.20;0.20;;;;;;;7.12;58.60;100832.91;4996845;28;20026;-91
2023/11/18 10:59:18;;;;;;;0.10;0.10;;;;;;;7.11;59.29;100832.94;4964162;28;20096;-89
2023/11/18 11:01:44;;;;;;;0.20;0.20;;;;;;;7.12;58.59;100840.63;4979409;28;20069;-91
2023/11/18 11:04:10;;;;;;;0.10;0.10;;;;;;;7.11;58.86;100846.66;5012061;28;20033;-91
2023/11/18 11:06:41;;;;;;;0.20;0.20;;;;;;;7.14;58.40;100822.56;4979787;28;20033;-91
2023/11/18 11:09:09;;;;;;;0.20;0.20;;;;;;;7.25;57.80;100853.09;5012073;28;20038;-89
2023/11/18 11:12:03;;;;;;;0.20;0.20;;;;;;;7.24;58.77;100849.69;4995317;28;20476;-89
2023/11/18 11:14:41;;;;;;;0.20;0.20;;;;;;;7.16;58.00;100834.47;5012064;28;20030;-91
2023/11/18 11:17:15;;;;;;;0.10;0.10;;;;;;;7.19;58.22;100849.84;4981204;28;20053;-90
2023/11/18 11:19:48;;;;;;;0.20;0.20;;;;;;;7.26;58.46;100859.91;4963425;28;20488;-89
2023/11/18 11:22:20;;;;;;;0.20;0.20;;;;;;;7.32;59.17;100857.16;4995096;28;20030;-89
2023/11/18 11:25:11;;;;;;;0.10;0.10;;;;;;;7.38;58.82;100867.28;4980962;28;20056;-90
2023/11/18 11:27:49;;;;;;;0.20;0.20;;;;;;;7.35;58.98;100841.63;4997446;28;20018;-90
2023/11/18 11:30:28;;;;;;;0.10;0.10;;;;;;;7.44;58.41;100869.63;4965162;28;20503;-90
2023/11/18 11:33:02;;;;;;;0.10;0.10;;;;;;;7.50;56.87;100871.19;4979364;28;20026;-90
2023/11/18 11:35:32;;;;;;;0.10;0.10;;;;;;;7.55;56.83;100862.41;4994866;28;20029;-90
2023/11/18 11:38:03;;;;;;;0.20;0.20;;;;;;;7.50;55.38;100855.72;4995408;28;20026;-91